Time;durP1;ratioP1;P1;durP2;ratioP2;P2;SDS_P1;SDS_P2;PMS_P1;PMS_P2;Temp;Humidity;BMP_temperature;BMP_pressure;BME280_temperature;BME280_humidity;BME280_pressure;Samples;Min_cycle;Max_cycle;Signal;HPM_P1;HPM_P2
2021/09/29 00:00:10;;;;;;;4.90;4.37;;;;;;;11.69;72.68;102042.23;1744566;81;20972;-75
2021/09/29 00:02:40;;;;;;;4.87;3.75;;;;;;;11.67;72.55;102039.70;1744748;82;20992;-76
2021/09/29 00:05:08;;;;;;;8.23;3.40;;;;;;;11.65;72.50;102038.91;1754714;81;20896;-75
2021/09/29 00:07:35;;;;;;;5.10;4.20;;;;;;;11.64;72.62;102038.95;1757986;80;20849;-75
2021/09/29 00:10:03;;;;;;;5.00;4.12;;;;;;;11.63;72.81;102034.17;1758134;80;21515;-77
2021/09/29 00:12:30;;;;;;;9.03;4.35;;;;;;;11.65;72.83;102030.14;1757779;80;21002;-76
2021/09/29 00:14:57;;;;;;;5.70;4.55;;;;;;;11.65;72.72;102029.70;1757883;81;20948;-75
2021/09/29 00:17:24;;;;;;;5.20;4.17;;;;;;;11.62;72.72;102029.34;1757990;80;20889;-75
2021/09/29 00:19:50;;;;;;;4.00;3.65;;;;;;;11.62;72.75;102028.03;1757980;81;20888;-76
2021/09/29 00:22:17;;;;;;;6.28;4.60;;;;;;;11.62;72.89;102028.50;1757854;80;22191;-75
2021/09/29 00:24:45;;;;;;;5.33;4.08;;;;;;;11.59;72.78;102029.95;1757718;80;20889;-76
2021/09/29 00:27:11;;;;;;;6.33;3.87;;;;;;;11.57;72.84;102027.38;1757958;81;20857;-76
2021/09/29 00:29:40;;;;;;;3.72;3.42;;;;;;;11.57;72.72;102025.22;1757861;81;21406;-77
2021/09/29 00:32:08;;;;;;;6.00;4.05;;;;;;;11.55;72.78;102020.02;1757956;81;20936;-79
2021/09/29 00:34:40;;;;;;;4.90;3.75;;;;;;;11.53;72.81;102025.80;1757840;81;21135;-76
2021/09/29 00:37:06;;;;;;;4.15;3.20;;;;;;;11.52;73.05;102025.88;1721861;83;20920;-77
2021/09/29 00:39:33;;;;;;;4.55;4.00;;;;;;;11.50;73.00;102019.36;1721898;83;21385;-77
2021/09/29 00:42:01;;;;;;;5.60;3.75;;;;;;;11.51;73.10;102022.84;1721695;83;20907;-78
2021/09/29 00:44:28;;;;;;;4.28;3.55;;;;;;;11.50;73.09;102025.94;1722145;82;21476;-77
2021/09/29 00:46:55;;;;;;;4.97;3.95;;;;;;;11.48;73.05;102029.08;1721743;82;21166;-78
2021/09/29 00:49:22;;;;;;;5.70;3.35;;;;;;;11.47;73.09;102031.33;1721940;82;20963;-79
2021/09/29 00:51:48;;;;;;;5.70;3.50;;;;;;;11.46;73.20;102029.60;1721802;83;20963;-79
2021/09/29 00:54:15;;;;;;;5.35;4.05;;;;;;;11.46;73.35;102035.32;1722178;83;21543;-78
2021/09/29 00:56:42;;;;;;;6.55;4.40;;;;;;;11.45;73.36;102039.73;1722215;83;20895;-78
2021/09/29 00:59:10;;;;;;;5.17;3.92;;;;;;;11.46;73.43;102039.26;1723486;83;21142;-78
2021/09/29 01:01:37;;;;;;;6.83;4.40;;;;;;;11.47;73.41;102034.39;1725399;81;20912;-77
2021/09/29 01:04:04;;;;;;;5.10;4.35;;;;;;;11.46;73.47;102043.20;1722179;82;20905;-78
2021/09/29 01:06:43;;;;;;;5.10;4.10;;;;;;;11.46;73.39;102045.36;1711128;82;20868;-77
2021/09/29 01:09:44;;;;;;;4.70;4.28;;;;;;;11.46;73.43;102047.14;1709022;84;20983;-77
2021/09/29 01:12:25;;;;;;;4.67;4.05;;;;;;;11.48;73.45;102047.94;1708909;84;21928;-77
2021/09/29 01:14:57;;;;;;;3.47;3.27;;;;;;;11.47;73.14;102049.72;1709126;84;21565;-78
2021/09/29 01:17:24;;;;;;;4.10;3.65;;;;;;;11.45;73.15;102048.04;1708822;82;20892;-77
2021/09/29 01:20:14;;;;;;;6.97;3.52;;;;;;;11.42;73.23;102046.40;1709221;83;20900;-78
2021/09/29 01:23:21;;;;;;;4.35;3.40;;;;;;;11.39;73.24;102047.84;1708811;84;21035;-77
2021/09/29 01:26:04;;;;;;;3.50;2.90;;;;;;;11.38;73.42;102051.38;1708850;84;21580;-77
2021/09/29 01:28:38;;;;;;;4.20;3.55;;;;;;;11.37;73.52;102054.93;1744579;81;20935;-78
2021/09/29 01:31:05;;;;;;;;;;;;;;;11.35;73.39;102052.36;1711569;84;20928;-77
2021/09/29 01:33:33;;;;;;;3.12;2.75;;;;;;;11.34;73.56;102053.75;1695456;84;20449;-78
2021/09/29 01:36:00;;;;;;;3.70;3.40;;;;;;;11.33;73.64;102050.25;1708843;84;20925;-78
2021/09/29 01:38:27;;;;;;;3.35;3.05;;;;;;;11.33;73.61;102051.56;1708666;83;21132;-77
2021/09/29 01:40:54;;;;;;;3.37;3.08;;;;;;;11.33;73.70;102057.28;1708759;84;21426;-77
2021/09/29 01:43:21;;;;;;;7.72;2.90;;;;;;;11.34;73.57;102056.38;1708386;84;20901;-75
2021/09/29 01:45:48;;;;;;;4.42;2.62;;;;;;;11.31;73.58;102050.77;1708602;84;20921;-78
2021/09/29 01:48:18;;;;;;;5.17;2.62;;;;;;;11.30;73.61;102057.41;1708527;84;20944;-76
2021/09/29 01:50:47;;;;;;;3.72;2.62;;;;;;;11.30;73.63;102062.20;1708355;83;22013;-76
2021/09/29 01:53:15;;;;;;;6.90;2.70;;;;;;;11.30;73.64;102063.52;1708358;84;20897;-76
2021/09/29 01:55:41;;;;;;;2.85;2.65;;;;;;;11.31;73.77;102066.52;1708704;84;20909;-75
2021/09/29 01:58:08;;;;;;;3.47;2.58;;;;;;;11.34;73.77;102068.20;1708537;84;20921;-74
2021/09/29 02:00:36;;;;;;;3.40;2.70;;;;;;;11.35;73.71;102066.80;1708794;84;20998;-76
2021/09/29 02:03:03;;;;;;;3.37;2.52;;;;;;;11.36;73.72;102069.84;1708448;83;21411;-75
2021/09/29 02:05:33;;;;;;;5.55;3.70;;;;;;;11.36;73.50;102067.65;1710765;83;21458;-76
2021/09/29 02:08:03;;;;;;;2.90;2.67;;;;;;;11.36;73.49;102072.91;1712296;83;21440;-76
2021/09/29 02:10:30;;;;;;;4.37;2.62;;;;;;;11.34;73.45;102072.14;1712404;83;21531;-76
2021/09/29 02:12:57;;;;;;;2.87;2.62;;;;;;;11.32;73.61;102079.22;1712306;83;20996;-76
2021/09/29 02:15:24;;;;;;;3.45;2.40;;;;;;;11.32;73.66;102081.84;1712622;83;21116;-76
2021/09/29 02:17:52;;;;;;;3.35;2.90;;;;;;;11.32;73.82;102085.78;1712247;83;20984;-77
2021/09/29 02:20:19;;;;;;;3.62;3.05;;;;;;;11.34;73.69;102082.18;1712248;83;20921;-77
2021/09/29 02:22:46;;;;;;;3.15;2.55;;;;;;;11.35;73.66;102079.09;1712163;83;21012;-77
2021/09/29 02:25:13;;;;;;;3.15;2.65;;;;;;;11.33;73.64;102084.39;1712359;83;21402;-76
2021/09/29 02:27:41;;;;;;;3.75;2.98;;;;;;;11.34;73.79;102082.18;1712313;83;21566;-75
2021/09/29 02:30:09;;;;;;;5.33;2.87;;;;;;;11.36;73.66;102089.55;1712675;83;20947;-76
2021/09/29 02:32:37;;;;;;;2.65;2.30;;;;;;;11.35;73.50;102092.22;1712342;83;21030;-76
2021/09/29 02:35:06;;;;;;;3.58;2.55;;;;;;;11.35;73.46;102098.32;1712381;83;20948;-78
2021/09/29 02:37:34;;;;;;;5.20;3.45;;;;;;;11.35;73.42;102097.01;1712371;83;21110;-78
2021/09/29 02:40:03;;;;;;;2.77;2.58;;;;;;;11.34;73.32;102099.25;1712306;83;21152;-77
2021/09/29 02:42:30;;;;;;;3.52;2.92;;;;;;;11.34;73.44;102103.19;1712273;83;21020;-78
2021/09/29 02:44:57;;;;;;;3.17;2.87;;;;;;;11.34;73.40;102101.88;1712512;83;20979;-77
2021/09/29 02:47:23;;;;;;;5.33;2.30;;;;;;;11.34;73.69;102101.03;1712316;83;20909;-77
2021/09/29 02:49:51;;;;;;;4.12;2.37;;;;;;;11.35;73.64;102104.03;1712374;83;20893;-77
2021/09/29 02:52:17;;;;;;;2.30;1.98;;;;;;;11.33;73.41;102104.55;1712342;83;21069;-77
2021/09/29 02:54:44;;;;;;;4.10;2.35;;;;;;;11.30;73.41;102108.63;1712718;83;20941;-77
2021/09/29 02:57:11;;;;;;;7.40;2.92;;;;;;;11.27;73.37;102115.29;1712322;83;20935;-77
2021/09/29 02:59:38;;;;;;;2.40;2.02;;;;;;;11.23;73.32;102117.20;1712569;83;20948;-77
2021/09/29 03:02:05;;;;;;;2.15;1.87;;;;;;;11.20;73.38;102108.98;1712332;83;21312;-77
2021/09/29 03:04:32;;;;;;;3.87;2.20;;;;;;;11.19;73.32;102117.77;1659477;83;21129;-76
2021/09/29 03:07:01;;;;;;;2.72;1.85;;;;;;;11.17;73.54;102119.59;1722151;82;20888;-77
2021/09/29 03:09:28;;;;;;;6.12;2.12;;;;;;;11.18;73.67;102121.32;1722176;83;21006;-76
2021/09/29 03:11:56;;;;;;;2.45;2.25;;;;;;;11.17;73.51;102119.59;1722187;82;20998;-76
2021/09/29 03:14:23;;;;;;;5.62;1.87;;;;;;;11.20;73.51;102118.18;1722388;83;20962;-77
2021/09/29 03:16:51;;;;;;;3.25;2.02;;;;;;;11.20;73.47;102115.55;1722232;82;22023;-76
2021/09/29 03:19:18;;;;;;;2.35;2.10;;;;;;;11.22;73.33;102118.09;1722251;83;20947;-75
2021/09/29 03:21:47;;;;;;;2.20;2.10;;;;;;;11.23;73.26;102121.14;1722398;82;21038;-77
2021/09/29 03:24:18;;;;;;;2.77;2.47;;;;;;;11.22;73.19;102123.34;1722264;82;20952;-78
2021/09/29 03:26:43;;;;;;;4.08;2.10;;;;;;;11.19;73.19;102121.70;1722525;83;20908;-78
2021/09/29 03:29:10;;;;;;;4.47;2.58;;;;;;;11.17;72.86;102128.78;1722436;83;21088;-77
2021/09/29 03:31:37;;;;;;;5.53;2.60;;;;;;;11.13;72.77;102125.02;1722222;83;21002;-76
2021/09/29 03:34:05;;;;;;;4.42;2.00;;;;;;;11.10;72.78;102133.88;1722317;82;20943;-77
2021/09/29 03:36:32;;;;;;;5.42;2.40;;;;;;;11.09;72.86;102135.23;1722471;82;20916;-81
2021/09/29 03:39:00;;;;;;;3.87;2.30;;;;;;;11.08;72.88;102133.07;1722429;83;21039;-79
2021/09/29 03:41:28;;;;;;;2.42;1.92;;;;;;;11.10;73.02;102127.77;1722434;83;21990;-78
2021/09/29 03:43:55;;;;;;;6.00;2.58;;;;;;;11.11;72.99;102140.82;1722259;82;20948;-78
2021/09/29 03:46:22;;;;;;;6.47;3.00;;;;;;;11.10;72.88;102144.38;1722764;83;20908;-79
2021/09/29 03:48:49;;;;;;;5.20;2.70;;;;;;;11.09;72.89;102141.80;1722634;83;21413;-78
2021/09/29 03:51:16;;;;;;;4.15;2.83;;;;;;;11.07;72.60;102144.50;1722515;82;21074;-79
2021/09/29 03:53:43;;;;;;;3.55;2.50;;;;;;;11.05;72.96;102147.64;1722406;82;21782;-77
2021/09/29 03:56:10;;;;;;;3.62;2.50;;;;;;;11.05;73.05;102147.64;1722731;83;20959;-77
2021/09/29 03:58:37;;;;;;;5.37;2.27;;;;;;;11.04;73.16;102146.38;1722437;82;20947;-78
2021/09/29 04:01:05;;;;;;;3.25;2.95;;;;;;;11.04;73.17;102150.31;1722421;83;20963;-79
2021/09/29 04:03:31;;;;;;;3.58;2.50;;;;;;;11.03;73.15;102151.20;1722786;83;21398;-81
2021/09/29 04:05:59;;;;;;;4.58;1.80;;;;;;;11.05;73.18;102154.63;1722227;82;21493;-79
2021/09/29 04:08:25;;;;;;;4.03;2.52;;;;;;;11.05;73.23;102154.20;1722442;82;20963;-78
2021/09/29 04:10:55;;;;;;;2.90;2.52;;;;;;;11.07;73.19;102155.00;1722718;83;20951;-78
2021/09/29 04:13:22;;;;;;;4.35;2.85;;;;;;;11.10;73.32;102155.34;1722259;83;20920;-81
2021/09/29 04:15:49;;;;;;;4.35;2.50;;;;;;;11.11;73.21;102153.95;1722435;83;21401;-75
2021/09/29 04:18:17;;;;;;;4.05;2.72;;;;;;;11.12;72.92;102158.77;1722284;82;21198;-76
2021/09/29 04:20:44;;;;;;;4.50;2.75;;;;;;;11.10;72.75;102157.50;1722164;83;21409;-76
2021/09/29 04:23:11;;;;;;;3.92;2.22;;;;;;;11.09;72.72;102161.48;1722167;82;20908;-76
2021/09/29 04:25:40;;;;;;;2.72;2.50;;;;;;;11.07;72.83;102164.19;1722221;82;21048;-76
2021/09/29 04:28:07;;;;;;;3.75;2.62;;;;;;;11.07;72.66;102163.31;1722469;83;20963;-76
2021/09/29 04:30:34;;;;;;;5.33;3.33;;;;;;;11.07;72.75;102163.31;1722284;83;21109;-74
2021/09/29 04:33:02;;;;;;;4.78;2.85;;;;;;;11.08;72.81;102165.89;1722459;83;21065;-75
2021/09/29 04:35:29;;;;;;;4.75;2.55;;;;;;;11.09;72.44;102166.27;1723814;82;20951;-75
2021/09/29 04:37:56;;;;;;;2.40;2.20;;;;;;;11.08;72.42;102165.05;1723833;82;21523;-75
2021/09/29 04:40:23;;;;;;;3.60;2.60;;;;;;;11.09;72.57;102167.59;1724464;82;20900;-76
2021/09/29 04:42:50;;;;;;;5.95;2.87;;;;;;;11.16;73.14;102177.41;1724546;83;21107;-76
2021/09/29 04:45:17;;;;;;;3.92;2.90;;;;;;;11.24;72.85;102178.45;1722928;82;21003;-76
2021/09/29 04:47:46;;;;;;;3.33;2.70;;;;;;;11.27;72.26;102177.89;1722157;82;20964;-76
2021/09/29 04:50:13;;;;;;;3.40;3.10;;;;;;;11.26;71.79;102177.47;1722152;82;20916;-75
2021/09/29 04:52:40;;;;;;;8.55;3.58;;;;;;;11.25;71.46;102174.89;1722545;83;21452;-75
2021/09/29 04:55:08;;;;;;;4.58;3.22;;;;;;;11.24;71.37;102178.45;1722244;83;21508;-75
2021/09/29 04:57:36;;;;;;;6.17;3.05;;;;;;;11.24;71.53;102179.77;1722583;82;20943;-76
2021/09/29 05:00:05;;;;;;;4.30;3.72;;;;;;;11.24;71.44;102177.13;1722186;83;21140;-76
2021/09/29 05:02:33;;;;;;;6.00;3.33;;;;;;;11.24;71.34;102182.39;1722405;83;21406;-76
2021/09/29 05:05:00;;;;;;;6.03;3.47;;;;;;;11.24;71.50;102185.02;1721334;83;20967;-72
2021/09/29 05:07:27;;;;;;;5.22;3.92;;;;;;;11.26;71.38;102184.50;1720434;83;21122;-84
2021/09/29 05:09:55;;;;;;;5.75;4.35;;;;;;;11.28;71.27;102191.41;1672603;83;20896;-70
2021/09/29 05:12:28;;;;;;;8.35;4.03;;;;;;;11.29;70.74;102189.16;1722236;82;20904;-77
2021/09/29 05:14:55;;;;;;;4.50;4.08;;;;;;;11.26;70.57;102182.72;1722158;83;20959;-74
2021/09/29 05:17:23;;;;;;;4.53;4.12;;;;;;;11.27;70.45;102187.08;1722039;83;20904;-73
2021/09/29 05:19:51;;;;;;;4.00;3.58;;;;;;;11.29;70.21;102194.88;1722130;82;22019;-78
2021/09/29 05:22:17;;;;;;;6.30;4.33;;;;;;;11.30;70.28;102197.45;1722101;82;20959;-76
2021/09/29 05:24:44;;;;;;;8.10;3.85;;;;;;;11.35;70.55;102193.34;1722212;83;21457;-78
2021/09/29 05:27:12;;;;;;;5.75;4.40;;;;;;;11.43;70.46;102206.17;1722237;83;21025;-78
2021/09/29 05:29:41;;;;;;;7.78;4.90;;;;;;;11.47;70.12;102195.95;1722289;83;20963;-76
2021/09/29 05:32:08;;;;;;;5.70;4.58;;;;;;;11.51;69.62;102201.02;1722099;82;21138;-76
2021/09/29 05:34:36;;;;;;;6.53;4.03;;;;;;;11.53;69.49;102207.08;1722220;83;20959;-78
2021/09/29 05:37:03;;;;;;;6.90;5.25;;;;;;;11.53;69.17;102195.72;1722177;83;20943;-78
2021/09/29 05:39:30;;;;;;;5.55;4.97;;;;;;;11.53;68.96;102209.70;1722283;82;20876;-78
2021/09/29 05:41:57;;;;;;;9.05;3.95;;;;;;;11.53;69.21;102203.59;1722252;82;20940;-78
2021/09/29 05:44:25;;;;;;;6.40;5.20;;;;;;;11.56;69.30;102200.41;1722224;82;21165;-78
2021/09/29 05:46:52;;;;;;;12.20;4.85;;;;;;;11.59;69.16;102202.91;1721975;82;21053;-77
2021/09/29 05:49:20;;;;;;;6.45;5.03;;;;;;;11.65;69.01;102203.57;1722491;82;21525;-77
2021/09/29 05:51:47;;;;;;;7.00;4.92;;;;;;;11.68;68.50;102204.32;1722114;83;21026;-77
2021/09/29 05:54:14;;;;;;;8.35;4.35;;;;;;;11.70;68.35;102207.75;1722534;83;20947;-78
2021/09/29 05:56:41;;;;;;;7.12;5.35;;;;;;;11.69;68.03;102211.27;1722368;83;21133;-79
2021/09/29 05:59:08;;;;;;;5.30;4.50;;;;;;;11.71;68.32;102214.70;1722324;82;20920;-78
2021/09/29 06:01:37;;;;;;;5.92;5.05;;;;;;;11.74;68.14;102215.91;1722219;82;21050;-77
2021/09/29 06:04:04;;;;;;;6.75;5.08;;;;;;;11.76;67.92;102216.72;1722488;83;20948;-77
2021/09/29 06:06:30;;;;;;;6.08;5.45;;;;;;;11.75;67.55;102216.30;1722172;83;21569;-75
2021/09/29 06:08:58;;;;;;;10.00;5.35;;;;;;;11.73;67.58;102229.11;1722248;83;21130;-76
2021/09/29 06:11:25;;;;;;;7.70;4.50;;;;;;;11.75;67.61;102228.59;1722026;83;21489;-78
2021/09/29 06:13:52;;;;;;;10.03;4.65;;;;;;;11.76;67.82;102223.28;1722175;82;20872;-75
2021/09/29 06:16:20;;;;;;;15.70;11.12;;;;;;;11.79;67.89;102234.13;1722318;82;21456;-76
2021/09/29 06:20:23;;;;;;;9.03;5.20;;;;;;;11.91;67.62;102231.50;1797656;79;22830;-76
2021/09/29 06:22:50;;;;;;;8.25;6.05;;;;;;;11.91;67.57;102235.44;1758484;80;20911;-78
2021/09/29 06:25:17;;;;;;;9.10;5.22;;;;;;;11.95;67.37;102240.52;1758278;80;21115;-76
2021/09/29 06:27:45;;;;;;;10.65;5.80;;;;;;;11.96;67.03;102246.19;1758191;80;20888;-76
2021/09/29 06:30:12;;;;;;;6.50;5.45;;;;;;;11.98;66.91;102243.48;1758254;80;20968;-78
2021/09/29 06:32:39;;;;;;;6.45;5.35;;;;;;;11.99;66.64;102241.27;1758227;80;21516;-78
2021/09/29 06:35:07;;;;;;;5.83;5.20;;;;;;;12.00;66.47;102244.27;1758329;80;20889;-76
2021/09/29 06:37:44;;;;;;;7.10;5.05;;;;;;;12.01;66.57;102246.85;1761850;80;21112;-78
2021/09/29 06:40:07;;;;;;;8.68;5.33;;;;;;;12.05;66.64;102249.34;1788363;79;20839;-77
2021/09/29 06:42:34;;;;;;;8.70;5.22;;;;;;;12.07;66.27;102251.46;1792267;80;20864;-77
2021/09/29 06:45:01;;;;;;;9.08;5.78;;;;;;;12.08;66.49;102252.72;1792460;78;21420;-76
2021/09/29 06:47:28;;;;;;;8.60;5.72;;;;;;;12.12;66.67;102254.31;1792430;80;21020;-76
2021/09/29 06:49:55;;;;;;;8.68;6.25;;;;;;;12.18;66.72;102255.83;1792459;80;21357;-74
2021/09/29 06:52:23;;;;;;;9.08;5.35;;;;;;;12.23;66.39;102252.11;1792638;80;21120;-72
2021/09/29 06:54:50;;;;;;;9.90;5.97;;;;;;;12.26;65.85;102263.42;1792588;78;20950;-72
2021/09/29 06:57:17;;;;;;;7.03;5.42;;;;;;;12.25;65.74;102266.52;1792679;78;20844;-74
2021/09/29 06:59:44;;;;;;;12.73;6.50;;;;;;;12.22;65.63;102266.16;1792416;80;20974;-77
2021/09/29 07:02:10;;;;;;;8.45;5.75;;;;;;;12.20;65.80;102265.83;1792913;80;21596;-77
2021/09/29 07:04:38;;;;;;;9.35;5.42;;;;;;;12.19;65.57;102264.98;1792719;80;20883;-82
2021/09/29 07:07:04;;;;;;;6.80;5.40;;;;;;;12.18;65.20;102269.86;1792874;80;20840;-80
2021/09/29 07:09:31;;;;;;;6.95;5.25;;;;;;;12.16;65.02;102270.37;1793032;80;20903;-83
2021/09/29 07:12:00;;;;;;;10.88;5.55;;;;;;;12.15;65.38;102273.06;1792795;80;20868;-83
2021/09/29 07:14:27;;;;;;;8.90;5.17;;;;;;;12.15;65.38;102272.59;1793083;80;21097;-82
2021/09/29 07:16:56;;;;;;;7.65;6.25;;;;;;;12.17;65.45;102271.22;1792858;80;20974;-82
2021/09/29 07:19:22;;;;;;;10.08;6.20;;;;;;;12.20;65.49;102269.77;1787210;78;20892;-82
2021/09/29 07:21:50;;;;;;;9.15;6.08;;;;;;;12.23;65.74;102267.89;1781291;80;20971;-82
2021/09/29 07:24:17;;;;;;;6.92;5.75;;;;;;;12.31;65.91;102270.19;1781781;79;20844;-82
2021/09/29 07:26:44;;;;;;;10.38;6.17;;;;;;;12.35;65.63;102270.94;1781397;80;21135;-79
2021/09/29 07:29:11;;;;;;;5.95;5.35;;;;;;;12.38;65.29;102271.68;1781312;80;20931;-82
2021/09/29 07:31:39;;;;;;;5.72;5.25;;;;;;;12.39;65.00;102272.53;1780866;80;20871;-85
2021/09/29 07:34:07;;;;;;;8.58;5.40;;;;;;;12.38;65.00;102272.11;1780745;80;21414;-82
2021/09/29 07:36:35;;;;;;;8.28;4.90;;;;;;;12.37;65.14;102270.42;1780881;80;20911;-83
2021/09/29 07:39:03;;;;;;;10.65;5.95;;;;;;;12.36;65.11;102273.95;1781231;79;21249;-85
2021/09/29 07:41:31;;;;;;;8.23;5.92;;;;;;;12.32;65.00;102279.81;1780844;80;21039;-82
2021/09/29 07:43:59;;;;;;;7.90;5.85;;;;;;;12.31;65.01;102278.55;1780873;80;21475;-83
2021/09/29 07:46:27;;;;;;;8.75;5.60;;;;;;;12.30;65.26;102279.02;1780633;79;20892;-80
2021/09/29 07:48:53;;;;;;;7.37;5.95;;;;;;;12.28;65.39;102285.27;1781101;80;20922;-81
2021/09/29 07:51:21;;;;;;;7.33;6.05;;;;;;;12.26;65.29;102285.31;1780762;80;21480;-80
2021/09/29 07:53:49;;;;;;;5.78;5.08;;;;;;;12.23;65.32;102290.25;1780628;80;20912;-79
2021/09/29 07:56:16;;;;;;;11.10;6.25;;;;;;;12.19;65.22;102288.66;1780395;80;20958;-81
2021/09/29 07:58:43;;;;;;;8.58;5.53;;;;;;;12.16;65.24;102289.22;1780797;79;20869;-83
2021/09/29 08:01:10;;;;;;;9.75;6.47;;;;;;;12.14;65.44;102290.62;1780975;79;20879;-82
2021/09/29 08:03:42;;;;;;;10.70;5.85;;;;;;;12.14;65.79;102287.11;1780784;80;21145;-81
2021/09/29 08:06:06;;;;;;;7.15;5.60;;;;;;;12.16;65.76;102287.91;1780315;80;20908;-82
2021/09/29 08:08:35;;;;;;;8.35;5.22;;;;;;;12.20;65.80;102294.76;1780760;80;20895;-81
2021/09/29 08:11:04;;;;;;;6.37;5.78;;;;;;;12.20;65.48;102287.72;1780692;80;21365;-82
2021/09/29 08:13:32;;;;;;;8.08;5.72;;;;;;;12.17;65.40;102287.00;1780758;80;20970;-81
2021/09/29 08:15:59;;;;;;;8.10;5.62;;;;;;;12.13;65.03;102290.67;1780882;80;21775;-81
2021/09/29 08:18:27;;;;;;;10.68;6.05;;;;;;;12.12;65.03;102292.45;1781692;79;20880;-80
2021/09/29 08:20:57;;;;;;;8.75;5.80;;;;;;;12.09;64.99;102289.92;1787870;79;20884;-80
2021/09/29 08:23:29;;;;;;;9.48;5.30;;;;;;;12.08;64.98;102285.59;1787118;80;20879;-83
2021/09/29 08:26:28;;;;;;;7.45;5.15;;;;;;;12.08;65.05;102293.95;1786336;80;20888;-81
2021/09/29 08:28:46;;;;;;;9.38;5.60;;;;;;;12.08;65.20;102298.74;1782666;79;21552;-81
2021/09/29 08:31:21;;;;;;;6.78;5.15;;;;;;;12.10;65.21;102298.69;1785636;80;21045;-81
2021/09/29 08:39:07;;;;;;;8.93;5.00;;;;;;;12.16;65.35;102303.25;1786738;80;21536;-81
2021/09/29 08:43:53;;;;;;;9.85;5.65;;;;;;;12.26;65.20;102294.98;1786661;80;20868;-81
2021/09/29 08:46:23;;;;;;;8.68;5.45;;;;;;;12.31;64.95;102297.81;1785868;80;20875;-81
2021/09/29 08:49:13;;;;;;;10.23;4.97;;;;;;;12.37;64.70;102296.26;1785820;79;20899;-81
2021/09/29 08:51:46;;;;;;;9.30;5.10;;;;;;;12.45;64.72;102298.59;1778877;79;20923;-81
2021/09/29 08:54:00;;;;;;;9.20;5.72;;;;;;;12.53;63.98;102295.63;1782146;79;21137;-81
2021/09/29 09:18:16;;;;;;;10.75;5.85;;;;;;;12.80;62.60;102293.61;1786492;80;21436;-77
2021/09/29 09:20:46;;;;;;;7.55;5.17;;;;;;;12.86;61.74;102300.80;1786216;80;21062;-76
2021/09/29 09:23:11;;;;;;;7.35;5.80;;;;;;;12.89;61.80;102299.80;1786361;80;21550;-77
2021/09/29 09:25:41;;;;;;;5.53;4.87;;;;;;;12.92;62.06;102301.48;1786501;80;20864;-77
2021/09/29 09:28:14;;;;;;;6.30;4.83;;;;;;;12.97;62.25;102297.70;1786294;79;20998;-78
2021/09/29 09:30:40;;;;;;;8.15;5.05;;;;;;;13.06;61.89;102294.66;1784367;80;21409;-77
2021/09/29 09:33:07;;;;;;;5.92;4.42;;;;;;;13.13;61.54;102295.72;1786656;80;21072;-76
2021/09/29 09:35:44;;;;;;;4.75;4.25;;;;;;;13.17;60.66;102294.67;1786382;79;20895;-78
2021/09/29 09:38:24;;;;;;;6.35;5.20;;;;;;;13.23;60.80;102299.67;1786880;79;21465;-77
2021/09/29 09:40:59;;;;;;;22.87;13.58;;;;;;;13.29;60.65;102293.30;1786506;80;20974;-76
2021/09/29 09:43:28;;;;;;;12.03;5.85;;;;;;;13.32;60.23;102294.47;1786808;79;20844;-76
2021/09/29 09:45:57;;;;;;;9.18;5.10;;;;;;;13.34;60.14;102293.50;1786562;80;21204;-76
2021/09/29 09:48:28;;;;;;;7.92;4.80;;;;;;;13.36;60.28;102298.67;1786742;79;20907;-77
2021/09/29 09:51:11;;;;;;;7.30;4.70;;;;;;;13.38;60.06;102299.47;1786370;80;20888;-80
2021/09/29 09:53:37;;;;;;;5.78;4.08;;;;;;;13.43;59.93;102305.41;1786980;80;20935;-80
2021/09/29 09:56:20;;;;;;;6.00;4.35;;;;;;;13.40;59.26;102298.47;1787141;79;21357;-79
2021/09/29 09:58:50;;;;;;;8.63;4.10;;;;;;;13.37;59.53;102297.77;1787298;79;21124;-82
2021/09/29 10:01:20;;;;;;;6.53;4.50;;;;;;;13.40;59.94;102305.06;1786610;80;21472;-74
2021/09/29 10:03:50;;;;;;;10.85;5.55;;;;;;;13.40;59.61;102301.58;1786478;80;20907;-75
2021/09/29 10:06:17;;;;;;;7.90;4.87;;;;;;;13.37;59.22;102295.14;1786644;79;20877;-75
2021/09/29 10:08:54;;;;;;;5.35;4.70;;;;;;;13.36;59.69;102303.95;1786640;80;20868;-76
2021/09/29 10:11:24;;;;;;;13.93;6.50;;;;;;;13.38;59.54;102307.38;1785061;80;21537;-76
2021/09/29 10:27:56;;;;;;;8.13;5.20;;;;;;;13.30;60.01;102291.08;1786450;80;20911;-76
2021/09/29 10:30:39;;;;;;;8.85;5.37;;;;;;;13.33;59.92;102297.52;1786932;80;20923;-78
2021/09/29 10:33:04;;;;;;;7.58;4.35;;;;;;;13.35;59.93;102294.34;1785811;80;20909;-76
2021/09/29 10:36:01;;;;;;;13.03;4.78;;;;;;;13.41;59.99;102292.77;1786973;80;20982;-77
2021/09/29 10:46:34;;;;;;;9.98;3.70;;;;;;;13.73;59.07;102279.88;1761555;80;21022;-78
2021/09/29 10:49:32;;;;;;;5.83;5.15;;;;;;;13.83;58.66;102286.45;1785731;80;20914;-77
2021/09/29 11:30:47;;;;;;;8.70;5.08;;;;;;;13.39;57.27;102276.16;1789526;78;20911;-78
2021/09/29 11:33:33;;;;;;;3.77;2.98;;;;;;;13.41;57.36;102278.27;1789887;80;21797;-78
2021/09/29 11:39:11;;;;;;;4.45;3.17;;;;;;;13.51;57.27;102276.05;1789978;80;21401;-80
2021/09/29 12:08:51;;;;;;;9.58;3.40;;;;;;;14.01;55.11;102270.20;1789631;80;20931;-77
2021/09/29 12:11:25;;;;;;;4.80;3.37;;;;;;;13.95;55.68;102275.30;1788974;78;20892;-74
2021/09/29 12:13:56;;;;;;;3.58;2.62;;;;;;;13.88;56.04;102268.61;1788380;80;21609;-74
2021/09/29 12:16:37;;;;;;;4.40;3.12;;;;;;;13.82;56.17;102272.85;1789013;80;20954;-78
2021/09/29 12:19:11;;;;;;;5.37;2.85;;;;;;;13.71;56.59;102274.66;1789616;78;20887;-74
2021/09/29 12:21:56;;;;;;;4.20;3.27;;;;;;;13.60;56.61;102279.11;1782415;80;20931;-75
2021/09/29 12:24:43;;;;;;;7.03;3.10;;;;;;;13.49;56.83;102276.12;1780512;79;20939;-76
2021/09/29 12:27:07;;;;;;;8.78;3.15;;;;;;;13.40;57.03;102280.02;1779876;80;21204;-74
2021/09/29 12:29:49;;;;;;;4.15;3.08;;;;;;;13.34;57.22;102279.44;1780595;79;20876;-77
2021/09/29 12:37:58;;;;;;;7.28;3.22;;;;;;;13.22;57.35;102280.36;1781053;80;21014;-76
2021/09/29 12:40:31;;;;;;;5.37;3.80;;;;;;;13.21;57.52;102281.30;1780851;79;22120;-72
2021/09/29 12:43:05;;;;;;;8.23;3.87;;;;;;;13.21;57.20;102281.77;1780551;80;20829;-76
2021/09/29 12:45:38;;;;;;;7.45;4.35;;;;;;;13.20;57.10;102276.93;1780881;80;20927;-74
2021/09/29 12:48:07;;;;;;;5.17;3.75;;;;;;;13.21;57.13;102276.02;1780677;80;21476;-73
2021/09/29 12:50:42;;;;;;;4.92;3.85;;;;;;;13.22;57.22;102272.92;1780786;80;20922;-71
2021/09/29 12:55:35;;;;;;;4.47;2.92;;;;;;;13.24;57.07;102274.56;1739807;80;20876;-72
2021/09/29 12:58:01;;;;;;;6.45;3.37;;;;;;;13.27;57.74;102276.20;1780492;79;20920;-74
2021/09/29 13:00:28;;;;;;;4.67;3.12;;;;;;;13.30;57.83;102276.58;1780647;79;20881;-74
2021/09/29 13:02:57;;;;;;;7.80;3.52;;;;;;;13.32;57.44;102276.02;1780777;80;20857;-74
2021/09/29 13:05:24;;;;;;;7.62;4.45;;;;;;;13.30;56.78;102270.84;1780870;80;21509;-74
2021/09/29 13:07:52;;;;;;;4.75;3.12;;;;;;;13.27;57.23;102276.20;1780700;79;20951;-73
2021/09/29 13:10:21;;;;;;;4.55;3.30;;;;;;;13.26;56.89;102273.19;1780756;79;20939;-74
2021/09/29 13:12:52;;;;;;;3.65;2.98;;;;;;;13.25;56.93;102271.02;1780569;80;20908;-76
2021/09/29 13:15:20;;;;;;;3.37;3.08;;;;;;;13.25;57.04;102272.34;1780984;79;20832;-79
2021/09/29 13:17:51;;;;;;;5.12;2.67;;;;;;;13.26;56.60;102271.39;1780951;80;20845;-73
2021/09/29 13:20:26;;;;;;;4.00;2.27;;;;;;;13.23;56.45;102270.23;1780717;80;20911;-74
2021/09/29 13:22:56;;;;;;;3.87;2.55;;;;;;;13.21;56.67;102272.54;1780659;79;21374;-75
2021/09/29 13:36:37;;;;;;;10.10;3.20;;;;;;;13.09;56.00;102273.07;1781113;80;20907;-74
2021/09/29 13:39:14;;;;;;;4.28;2.75;;;;;;;13.07;56.08;102275.77;1780654;80;20982;-73
2021/09/29 13:41:42;;;;;;;3.70;2.67;;;;;;;13.04;55.83;102273.27;1780608;80;20927;-74
2021/09/29 13:44:10;;;;;;;3.80;2.27;;;;;;;13.04;55.73;102277.23;1780674;79;21479;-74
2021/09/29 13:46:37;;;;;;;5.95;2.22;;;;;;;13.04;55.68;102283.34;1780681;80;21298;-74
2021/09/29 13:49:06;;;;;;;3.90;2.27;;;;;;;13.04;55.76;102276.76;1780506;80;20875;-73
2021/09/29 13:51:35;;;;;;;6.20;2.37;;;;;;;13.04;55.69;102278.55;1780709;80;21010;-72
2021/09/29 13:54:08;;;;;;;6.85;2.77;;;;;;;13.01;55.82;102279.53;1781144;80;21404;-73